Авиационная погода в аэропорту Новый

СКИДКИ НА СМАРТФОНЫ!

Регион: 
Погода METAR: 
UHHH 091530Z 16004MPS CAVOK 14/13 Q0998 R23R/290045 NOSIG RMK QFE742/0990
Время наблюдения
2022-08-09T15:30:00Z
Температура C
14.0
Точка росы
13.0
Направление ветра
160
Скорость ветра (узлы)
8
Метео видимость
6.21
Облачность
CAVOK
Нижняя граница облачности (футы)
Явления погоды
Условия полета
VFR
Аэропорт подробнее: 

Скидки на навигаторы!